createdAt,value
2023-04-15T00:01:00.034Z,6.90
2023-04-15T00:03:27.345Z,4.20
2023-04-15T00:05:53.993Z,4.33
2023-04-15T00:08:20.632Z,6.00
2023-04-15T00:10:47.116Z,10.80
2023-04-15T00:13:13.709Z,4.37
2023-04-15T00:15:40.932Z,5.47
2023-04-15T00:18:08.059Z,4.50
2023-04-15T00:20:35.438Z,5.63
2023-04-15T00:23:03.850Z,5.70
2023-04-15T00:25:30.665Z,5.67
2023-04-15T00:27:57.087Z,5.00
2023-04-15T00:30:24.079Z,5.10
2023-04-15T00:32:50.677Z,5.10
2023-04-15T00:35:21.711Z,6.70
2023-04-15T00:37:49.847Z,4.87
2023-04-15T00:40:18.913Z,7.47
2023-04-15T00:42:45.689Z,5.73
2023-04-15T00:45:13.884Z,6.00
2023-04-15T00:47:42.819Z,5.77
2023-04-15T00:50:10.338Z,6.23
2023-04-15T00:52:37.884Z,6.13
2023-04-15T00:55:05.537Z,8.13
2023-04-15T00:57:32.308Z,6.30
2023-04-15T01:00:00.539Z,7.00
2023-04-15T01:02:27.404Z,6.73
2023-04-15T01:04:54.057Z,7.57
2023-04-15T01:07:20.647Z,8.53
2023-04-15T01:09:48.024Z,10.70
2023-04-15T01:12:16.313Z,7.47
2023-04-15T01:14:43.238Z,7.70
2023-04-15T01:17:09.725Z,8.20
2023-04-15T01:19:37.118Z,7.97
2023-04-15T01:22:03.859Z,7.27
2023-04-15T01:24:31.612Z,7.57
2023-04-15T01:26:58.580Z,7.53
2023-04-15T01:29:25.105Z,7.20
2023-04-15T01:31:52.948Z,8.70
2023-04-15T01:34:19.547Z,9.93
2023-04-15T01:36:46.437Z,8.60
2023-04-15T01:39:14.200Z,8.03
2023-04-15T01:41:42.300Z,7.47
2023-04-15T01:44:09.140Z,7.80
2023-04-15T01:46:36.519Z,7.27
2023-04-15T01:49:03.373Z,7.17
2023-04-15T01:51:32.078Z,6.70
2023-04-15T01:53:58.488Z,6.10
2023-04-15T01:56:25.478Z,8.03
2023-04-15T01:58:52.835Z,6.77
2023-04-15T02:01:20.024Z,5.63
2023-04-15T02:03:47.839Z,7.30
2023-04-15T02:06:15.766Z,6.93
2023-04-15T02:08:42.232Z,5.20
2023-04-15T02:11:09.281Z,6.47
2023-04-15T02:13:36.245Z,6.73
2023-04-15T02:16:03.618Z,7.60
2023-04-15T02:18:30.505Z,5.80
2023-04-15T02:20:58.771Z,6.47
2023-04-15T02:23:25.405Z,6.57
2023-04-15T02:25:53.503Z,6.20
2023-04-15T02:28:21.716Z,6.20
2023-04-15T02:30:52.565Z,8.67
2023-04-15T02:33:19.574Z,6.03
2023-04-15T02:35:46.472Z,6.23
2023-04-15T02:38:14.691Z,7.23
2023-04-15T02:40:41.497Z,5.50
2023-04-15T02:43:08.280Z,5.57
2023-04-15T02:45:37.252Z,8.50
2023-04-15T02:48:06.654Z,6.57
2023-04-15T02:50:33.596Z,6.93
2023-04-15T02:53:04.413Z,5.87
2023-04-15T02:55:31.282Z,6.30
2023-04-15T02:58:01.123Z,5.83
2023-04-15T03:00:28.258Z,7.70
2023-04-15T03:02:59.424Z,6.23
2023-04-15T03:05:26.408Z,6.93
2023-04-15T03:07:53.652Z,6.50
2023-04-15T03:10:21.170Z,6.20
2023-04-15T03:12:48.702Z,7.57
2023-04-15T03:15:20.336Z,6.93
2023-04-15T03:17:50.787Z,7.07
2023-04-15T03:20:17.317Z,6.80
2023-04-15T03:22:43.894Z,7.47
2023-04-15T03:25:11.360Z,8.13
2023-04-15T03:27:38.924Z,8.00
2023-04-15T03:30:06.635Z,7.47
2023-04-15T03:32:35.645Z,8.37
2023-04-15T03:35:02.265Z,6.60
2023-04-15T03:37:28.824Z,7.47
2023-04-15T03:39:55.543Z,8.07
2023-04-15T03:42:22.215Z,9.93
2023-04-15T03:44:48.748Z,7.13
2023-04-15T03:47:15.724Z,9.50
2023-04-15T03:49:42.171Z,9.03
2023-04-15T03:52:08.753Z,8.40
2023-04-15T03:54:35.205Z,8.47
2023-04-15T03:57:02.417Z,7.63
2023-04-15T03:59:28.989Z,8.03
2023-04-15T04:01:55.680Z,7.43
2023-04-15T04:04:22.437Z,7.90
2023-04-15T04:06:49.132Z,8.10
2023-04-15T04:09:15.530Z,7.60
2023-04-15T04:11:42.141Z,10.03
2023-04-15T04:14:08.960Z,8.27
2023-04-15T04:16:35.743Z,8.33
2023-04-15T04:19:02.427Z,9.97
2023-04-15T04:21:29.585Z,11.13
2023-04-15T04:23:56.697Z,11.70
2023-04-15T04:26:23.169Z,9.47
2023-04-15T04:28:49.782Z,10.60
2023-04-15T04:31:16.442Z,11.00
2023-04-15T04:33:42.875Z,10.53
2023-04-15T04:36:09.595Z,13.00
2023-04-15T04:38:35.991Z,12.70
2023-04-15T04:41:02.628Z,9.77
2023-04-15T04:43:29.068Z,11.37
2023-04-15T04:45:55.746Z,11.00
2023-04-15T04:48:22.876Z,12.43
2023-04-15T04:50:49.476Z,11.77
2023-04-15T04:53:16.204Z,14.50
2023-04-15T04:55:42.914Z,14.57
2023-04-15T04:58:09.328Z,14.87
2023-04-15T05:00:37.520Z,15.00
2023-04-15T05:03:04.524Z,13.63
2023-04-15T05:05:31.534Z,14.77
2023-04-15T05:07:57.930Z,15.83
2023-04-15T05:10:24.501Z,19.53
2023-04-15T05:12:51.881Z,14.53
2023-04-15T05:15:18.616Z,17.83
2023-04-15T05:17:45.545Z,13.73
2023-04-15T05:20:12.496Z,17.50
2023-04-15T05:22:39.186Z,19.70
2023-04-15T05:25:05.832Z,16.67
2023-04-15T05:27:32.381Z,17.37
2023-04-15T05:29:58.807Z,21.23
2023-04-15T05:32:25.759Z,20.13
2023-04-15T05:34:52.315Z,19.83
2023-04-15T05:37:21.094Z,18.67
2023-04-15T05:39:48.243Z,21.27
2023-04-15T05:42:14.839Z,18.93
2023-04-15T05:44:41.653Z,20.47
2023-04-15T05:47:08.669Z,21.97
2023-04-15T05:49:35.525Z,24.90
2023-04-15T05:52:02.410Z,24.77
2023-04-15T05:54:28.864Z,23.03
2023-04-15T05:56:56.493Z,17.87
2023-04-15T05:59:23.005Z,24.50
2023-04-15T06:01:49.978Z,21.27
2023-04-15T06:04:17.114Z,22.13
2023-04-15T06:06:43.889Z,17.50
2023-04-15T06:09:10.320Z,18.87
2023-04-15T06:11:37.154Z,23.30
2023-04-15T06:14:03.576Z,22.80
2023-04-15T06:16:30.156Z,23.70
2023-04-15T06:18:56.645Z,23.53
2023-04-15T06:21:23.235Z,28.03
2023-04-15T06:23:50.228Z,27.60
2023-04-15T06:26:16.876Z,24.67
2023-04-15T06:28:43.273Z,24.67
2023-04-15T06:31:09.905Z,28.67
2023-04-15T06:33:36.403Z,29.30
2023-04-15T06:36:02.851Z,28.17
2023-04-15T06:38:29.302Z,27.10
2023-04-15T06:40:56.131Z,28.17
2023-04-15T06:43:22.588Z,27.43
2023-04-15T06:45:49.267Z,29.77
2023-04-15T06:48:15.814Z,31.13
2023-04-15T06:50:42.514Z,30.90
2023-04-15T06:53:08.966Z,35.07
2023-04-15T06:55:35.667Z,31.10
2023-04-15T06:58:02.118Z,34.20
2023-04-15T07:00:28.795Z,30.93
2023-04-15T07:02:55.760Z,36.93
2023-04-15T07:05:22.533Z,31.23
2023-04-15T07:07:48.913Z,33.77
2023-04-15T07:10:15.821Z,35.43
2023-04-15T07:12:42.315Z,35.63
2023-04-15T07:15:09.058Z,35.60
2023-04-15T07:17:35.461Z,36.80
2023-04-15T07:20:02.582Z,40.53
2023-04-15T07:22:29.007Z,35.60
2023-04-15T07:24:55.682Z,35.77
2023-04-15T07:27:22.498Z,34.33
2023-04-15T07:29:49.030Z,30.70
2023-04-15T07:32:15.489Z,30.80
2023-04-15T07:34:42.153Z,37.50
2023-04-15T07:37:08.740Z,33.60
2023-04-15T07:39:35.204Z,36.43
2023-04-15T07:42:02.186Z,35.60
2023-04-15T07:44:28.740Z,38.30
2023-04-15T07:46:56.144Z,36.80
2023-04-15T07:49:22.862Z,37.90
2023-04-15T07:51:50.087Z,39.40
2023-04-15T07:54:16.755Z,39.23
2023-04-15T07:56:43.216Z,43.23
2023-04-15T07:59:10.059Z,44.57
2023-04-15T08:01:36.920Z,43.20
2023-04-15T08:04:03.829Z,37.13
2023-04-15T08:06:30.693Z,42.87
2023-04-15T08:08:57.392Z,45.93
2023-04-15T08:11:24.549Z,50.93
2023-04-15T08:13:52.438Z,46.10
2023-04-15T08:16:20.292Z,45.47
2023-04-15T08:18:47.684Z,42.40
2023-04-15T08:21:14.296Z,52.70
2023-04-15T08:23:40.998Z,49.23
2023-04-15T08:26:08.726Z,46.57
2023-04-15T08:28:36.126Z,45.10
2023-04-15T08:31:02.656Z,50.07
2023-04-15T08:33:29.216Z,51.43
2023-04-15T08:35:55.787Z,53.90
2023-04-15T08:38:22.673Z,46.93
2023-04-15T08:40:49.568Z,46.90
2023-04-15T08:43:28.256Z,48.77
2023-04-15T08:45:55.796Z,47.33
2023-04-15T08:48:24.456Z,51.60
2023-04-15T08:50:51.742Z,44.63
2023-04-15T08:53:18.245Z,45.00
2023-04-15T08:55:46.463Z,46.80
2023-04-15T08:58:14.144Z,47.80
2023-04-15T09:00:42.032Z,45.57
2023-04-15T09:03:09.341Z,42.50
2023-04-15T09:05:37.382Z,44.83
2023-04-15T09:08:05.304Z,50.13
2023-04-15T09:10:33.625Z,41.50
2023-04-15T09:13:02.070Z,45.43
2023-04-15T09:15:29.940Z,45.03
2023-04-15T09:17:56.918Z,50.60
2023-04-15T09:20:23.846Z,48.17
2023-04-15T09:22:51.080Z,49.13
2023-04-15T09:25:24.367Z,47.23
2023-04-15T09:27:53.652Z,50.20
2023-04-15T09:30:21.305Z,45.60
2023-04-15T09:32:53.064Z,48.30
2023-04-15T09:35:21.697Z,46.00
2023-04-15T09:37:49.274Z,53.23
2023-04-15T09:40:31.493Z,52.70
2023-04-15T09:42:58.040Z,44.20
2023-04-15T09:45:28.826Z,51.73
2023-04-15T09:47:59.169Z,49.20
2023-04-15T09:50:29.613Z,44.87
2023-04-15T09:52:56.362Z,43.93
2023-04-15T09:55:22.967Z,46.70
2023-04-15T09:57:49.507Z,49.70
2023-04-15T10:00:16.445Z,50.70
2023-04-15T10:02:43.638Z,52.60
2023-04-15T10:05:15.489Z,46.83
2023-04-15T10:07:42.716Z,48.67
2023-04-15T10:10:10.828Z,44.00
2023-04-15T10:12:38.197Z,48.97
2023-04-15T10:15:06.039Z,50.73
2023-04-15T10:17:35.218Z,47.43
2023-04-15T10:20:04.699Z,42.40
2023-04-15T10:22:32.568Z,48.37
2023-04-15T10:25:02.670Z,48.93
2023-04-15T10:27:29.307Z,38.03
2023-04-15T10:29:57.135Z,44.63
2023-04-15T10:32:26.322Z,42.83
2023-04-15T10:34:54.888Z,42.47
2023-04-15T10:37:23.144Z,41.70
2023-04-15T10:39:50.684Z,39.63
2023-04-15T10:42:19.309Z,37.97
2023-04-15T10:44:54.385Z,42.63
2023-04-15T10:47:22.037Z,41.37
2023-04-15T10:49:50.294Z,48.73
2023-04-15T10:52:24.800Z,38.53
2023-04-15T10:55:03.181Z,37.37
2023-04-15T10:57:36.054Z,36.43
2023-04-15T11:00:11.575Z,37.70
2023-04-15T11:02:41.031Z,38.30
2023-04-15T11:05:08.150Z,33.57
2023-04-15T11:07:38.963Z,35.43
2023-04-15T11:10:17.541Z,35.30
2023-04-15T11:12:45.597Z,34.40
2023-04-15T11:15:33.545Z,29.90
2023-04-15T11:18:14.972Z,26.00
2023-04-15T11:20:44.886Z,29.60
2023-04-15T11:23:15.095Z,26.17
2023-04-15T11:25:43.289Z,31.40
2023-04-15T11:28:11.371Z,29.20
2023-04-15T11:30:38.991Z,22.83
2023-04-15T11:33:10.455Z,26.77
2023-04-15T11:35:37.042Z,25.50
2023-04-15T11:38:04.446Z,27.73
2023-04-15T11:40:33.333Z,25.60
2023-04-15T11:43:07.189Z,20.00
2023-04-15T11:45:34.392Z,25.77
2023-04-15T11:48:09.604Z,22.93
2023-04-15T11:50:36.774Z,21.43
2023-04-15T11:53:07.637Z,21.53
2023-04-15T11:55:46.957Z,19.70
2023-04-15T11:58:17.987Z,19.57
2023-04-15T12:00:55.261Z,17.53
2023-04-15T12:03:27.605Z,24.00
2023-04-15T12:06:12.263Z,12.63
2023-04-15T12:09:00.445Z,10.37
2023-04-15T12:11:26.862Z,11.23
2023-04-15T12:13:58.661Z,11.23
2023-04-15T12:16:25.972Z,9.57
2023-04-15T12:18:57.603Z,10.40
2023-04-15T12:21:26.184Z,9.43
2023-04-15T12:23:54.750Z,10.20
2023-04-15T12:26:38.175Z,12.90
2023-04-15T12:29:10.274Z,10.93
2023-04-15T12:31:37.379Z,10.70
2023-04-15T12:34:08.076Z,11.63
2023-04-15T12:36:37.161Z,11.50
2023-04-15T12:39:06.744Z,12.43
2023-04-15T12:41:33.632Z,9.93
2023-04-15T12:44:00.305Z,9.90
2023-04-15T12:46:27.233Z,9.73
2023-04-15T12:48:54.020Z,9.77
2023-04-15T12:51:23.520Z,9.27
2023-04-15T12:53:50.802Z,9.33
2023-04-15T12:56:17.217Z,9.40
2023-04-15T12:58:43.954Z,10.43
2023-04-15T13:01:11.204Z,9.50
2023-04-15T13:03:37.947Z,10.00
2023-04-15T13:06:05.128Z,9.27
2023-04-15T13:08:32.509Z,11.80
2023-04-15T13:10:59.037Z,9.00
2023-04-15T13:13:25.713Z,10.13
2023-04-15T13:15:52.219Z,10.73
2023-04-15T13:18:18.750Z,9.47
2023-04-15T13:20:45.532Z,10.07
2023-04-15T13:23:12.289Z,8.27
2023-04-15T13:25:38.785Z,10.87
2023-04-15T13:28:05.385Z,9.90
2023-04-15T13:30:32.433Z,8.33
2023-04-15T13:32:58.867Z,10.70
2023-04-15T13:35:25.436Z,11.03
2023-04-15T13:37:53.593Z,10.60
2023-04-15T13:40:20.378Z,11.47
2023-04-15T13:42:47.053Z,10.57
2023-04-15T13:45:13.491Z,12.80
2023-04-15T13:47:40.541Z,12.00
2023-04-15T13:50:07.438Z,10.53
2023-04-15T13:52:34.052Z,10.40
2023-04-15T13:55:17.987Z,13.20
2023-04-15T13:57:46.521Z,11.43
2023-04-15T14:00:13.952Z,9.93
2023-04-15T14:02:41.736Z,8.70
2023-04-15T14:05:09.419Z,12.93
2023-04-15T14:07:36.518Z,16.03
2023-04-15T14:10:03.285Z,8.57
2023-04-15T14:12:29.755Z,9.53
2023-04-15T14:14:56.392Z,9.83
2023-04-15T14:17:23.065Z,8.77
2023-04-15T14:19:49.593Z,8.80
2023-04-15T14:22:16.261Z,8.63
2023-04-15T14:24:43.037Z,9.03
2023-04-15T14:27:11.148Z,9.20
2023-04-15T14:29:37.705Z,8.80
2023-04-15T14:32:11.696Z,15.00
2023-04-15T14:34:39.645Z,9.00
2023-04-15T14:37:06.228Z,9.50
2023-04-15T14:39:32.761Z,11.53
2023-04-15T14:41:59.182Z,9.40
2023-04-15T14:44:25.800Z,9.30
2023-04-15T14:46:52.300Z,9.57
2023-04-15T14:49:18.936Z,8.70
2023-04-15T14:51:46.235Z,9.90
2023-04-15T14:54:12.852Z,8.53
2023-04-15T14:56:39.325Z,9.03
2023-04-15T14:59:06.047Z,8.23
2023-04-15T15:01:33.965Z,7.60
2023-04-15T15:04:00.889Z,10.60
2023-04-15T15:06:27.776Z,13.20
2023-04-15T15:08:54.397Z,9.53
2023-04-15T15:11:20.993Z,9.43
2023-04-15T15:13:47.605Z,9.03
2023-04-15T15:16:14.728Z,12.63
2023-04-15T15:18:41.382Z,11.07
2023-04-15T15:21:07.857Z,9.07
2023-04-15T15:23:34.770Z,8.50
2023-04-15T15:26:01.376Z,8.67
2023-04-15T15:28:27.895Z,7.50
2023-04-15T15:30:54.573Z,9.60
2023-04-15T15:33:21.191Z,8.73
2023-04-15T15:35:47.929Z,10.90
2023-04-15T15:38:14.986Z,9.60
2023-04-15T15:40:41.445Z,8.53
2023-04-15T15:43:08.002Z,12.33
2023-04-15T15:45:35.509Z,10.83
2023-04-15T15:48:02.750Z,12.63
2023-04-15T15:50:29.324Z,10.10
2023-04-15T15:52:56.075Z,11.37
2023-04-15T15:55:23.287Z,10.47
2023-04-15T15:57:50.137Z,10.60
2023-04-15T16:00:17.092Z,10.90
2023-04-15T16:05:13.310Z,12.23
2023-04-15T16:07:40.103Z,11.20
2023-04-15T16:10:07.330Z,15.20
2023-04-15T16:12:35.058Z,17.27
2023-04-15T16:15:01.798Z,11.27
2023-04-15T16:17:28.525Z,11.87
2023-04-15T16:19:55.641Z,12.13
2023-04-15T16:22:27.091Z,12.00
2023-04-15T16:24:53.651Z,10.50
2023-04-15T16:27:20.064Z,10.70
2023-04-15T16:29:46.711Z,10.63
2023-04-15T16:32:13.276Z,11.67
2023-04-15T16:34:41.254Z,9.60
2023-04-15T16:37:07.737Z,10.90
2023-04-15T16:39:34.239Z,10.40
2023-04-15T16:42:02.174Z,13.30
2023-04-15T16:44:29.094Z,13.10
2023-04-15T16:46:56.264Z,14.10
2023-04-15T16:49:22.912Z,11.13
2023-04-15T16:51:49.329Z,13.20
2023-04-15T16:54:15.980Z,12.60
2023-04-15T16:56:42.374Z,13.03
2023-04-15T16:59:08.958Z,10.63
2023-04-15T17:01:35.574Z,13.50
2023-04-15T17:04:02.407Z,13.93
2023-04-15T17:06:28.898Z,14.30
2023-04-15T17:08:55.466Z,12.00
2023-04-15T17:11:21.851Z,12.73
2023-04-15T17:13:49.015Z,13.23
2023-04-15T17:16:15.548Z,12.80
2023-04-15T17:18:42.382Z,13.10
2023-04-15T17:21:08.780Z,13.50
2023-04-15T17:23:35.373Z,12.40
2023-04-15T17:26:01.987Z,13.87
2023-04-15T17:28:28.594Z,13.43
2023-04-15T17:30:55.226Z,14.43
2023-04-15T17:33:56.175Z,12.60
2023-04-15T17:36:08.752Z,15.70
2023-04-15T17:38:35.261Z,17.07
2023-04-15T17:41:01.659Z,12.37
2023-04-15T17:43:28.137Z,17.63
2023-04-15T17:45:54.521Z,13.37
2023-04-15T17:48:21.078Z,12.53
2023-04-15T17:50:47.792Z,15.50
2023-04-15T17:53:16.148Z,14.03
2023-04-15T17:55:42.715Z,16.23
2023-04-15T17:58:09.318Z,13.60
2023-04-15T18:00:35.842Z,14.63
2023-04-15T18:03:02.461Z,13.90
2023-04-15T18:05:30.150Z,15.67
2023-04-15T18:07:56.677Z,13.07
2023-04-15T18:10:23.959Z,13.33
2023-04-15T18:12:50.579Z,15.23
2023-04-15T18:15:17.327Z,14.07
2023-04-15T18:17:43.951Z,13.30
2023-04-15T18:20:11.010Z,14.53
2023-04-15T18:22:37.639Z,15.87
2023-04-15T18:25:04.680Z,15.83
2023-04-15T18:27:35.444Z,16.73
2023-04-15T18:30:01.888Z,15.50
2023-04-15T18:32:31.860Z,16.03
2023-04-15T18:34:58.524Z,15.97
2023-04-15T18:37:26.791Z,16.53
2023-04-15T18:39:54.075Z,20.50
2023-04-15T18:42:20.956Z,16.50
2023-04-15T18:44:47.368Z,17.33
2023-04-15T18:47:14.915Z,17.60
2023-04-15T18:49:41.662Z,18.20
2023-04-15T18:52:09.905Z,20.00
2023-04-15T18:54:37.250Z,20.10
2023-04-15T18:57:04.118Z,19.03
2023-04-15T18:59:31.349Z,17.93
2023-04-15T19:02:00.132Z,22.70
2023-04-15T19:04:28.802Z,17.23
2023-04-15T19:06:56.017Z,17.07
2023-04-15T19:09:22.569Z,20.03
2023-04-15T19:11:49.071Z,19.63
2023-04-15T19:14:17.479Z,21.20
2023-04-15T19:16:44.023Z,14.47
2023-04-15T19:19:10.583Z,22.60
2023-04-15T19:21:37.045Z,16.27
2023-04-15T19:24:03.614Z,16.83
2023-04-15T19:26:30.110Z,17.07
2023-04-15T19:28:58.747Z,18.67
2023-04-15T19:31:26.148Z,23.70
2023-04-15T19:33:52.761Z,18.87
2023-04-15T19:36:19.236Z,15.43
2023-04-15T19:38:45.642Z,17.00
2023-04-15T19:41:12.150Z,14.80
2023-04-15T19:43:38.582Z,16.43
2023-04-15T19:46:06.226Z,17.23
2023-04-15T19:48:32.707Z,16.33
2023-04-15T19:50:59.810Z,21.43
2023-04-15T19:53:26.321Z,15.00
2023-04-15T19:55:52.912Z,19.60
2023-04-15T19:58:19.407Z,16.27
2023-04-15T20:00:46.050Z,16.60
2023-04-15T20:03:12.700Z,15.43
2023-04-15T20:05:39.413Z,14.00
2023-04-15T20:08:05.882Z,22.13
2023-04-15T20:10:32.604Z,22.20
2023-04-15T20:12:59.023Z,16.77
2023-04-15T20:15:26.099Z,15.97
2023-04-15T20:17:52.532Z,17.07
2023-04-15T20:20:19.363Z,18.63
2023-04-15T20:22:45.971Z,18.47
2023-04-15T20:25:12.751Z,16.53
2023-04-15T20:27:39.421Z,15.73
2023-04-15T20:30:07.330Z,18.40
2023-04-15T20:32:36.614Z,20.23
2023-04-15T20:35:05.090Z,16.37
2023-04-15T20:37:33.217Z,20.77
2023-04-15T20:40:01.238Z,14.97
2023-04-15T20:42:27.989Z,14.97
2023-04-15T20:44:54.515Z,18.93
2023-04-15T20:47:21.076Z,20.87
2023-04-15T20:49:47.930Z,17.50
2023-04-15T20:52:14.384Z,15.27
2023-04-15T20:54:41.036Z,16.07
2023-04-15T20:57:07.474Z,18.23
2023-04-15T20:59:34.692Z,14.97
2023-04-15T21:02:01.900Z,16.13
2023-04-15T21:04:28.387Z,14.57
2023-04-15T21:06:54.999Z,15.23
2023-04-15T21:09:21.412Z,13.17
2023-04-15T21:14:18.767Z,16.60
2023-04-15T21:16:45.680Z,17.40
2023-04-15T21:19:12.181Z,19.17
2023-04-15T21:21:38.667Z,17.50
2023-04-15T21:24:07.546Z,18.53
2023-04-15T21:26:34.211Z,18.83
2023-04-15T21:29:00.666Z,16.73
2023-04-15T21:31:27.120Z,18.30
2023-04-15T21:33:53.574Z,21.40
2023-04-15T21:36:20.252Z,17.03
2023-04-15T21:38:46.726Z,18.30
2023-04-15T21:41:13.362Z,26.30
2023-04-15T21:43:39.830Z,15.60
2023-04-15T21:46:22.470Z,18.33
2023-04-15T21:48:52.762Z,16.93
2023-04-15T21:51:19.289Z,17.47
2023-04-15T21:53:45.755Z,15.27
2023-04-15T21:56:12.367Z,18.33
2023-04-15T21:58:38.830Z,15.07
2023-04-15T22:01:05.847Z,18.60
2023-04-15T22:03:34.071Z,17.20
2023-04-15T22:06:04.640Z,19.50
2023-04-15T22:08:41.171Z,20.77
2023-04-15T22:11:28.672Z,18.50
2023-04-15T22:13:58.750Z,19.77
2023-04-15T22:16:26.740Z,20.03
2023-04-15T22:18:54.250Z,17.80
2023-04-15T22:21:20.746Z,22.13
2023-04-15T22:23:47.879Z,18.57
2023-04-15T22:26:14.525Z,19.03
2023-04-15T22:28:41.628Z,18.70
2023-04-15T22:31:08.177Z,20.00
2023-04-15T22:33:34.603Z,18.27
2023-04-15T22:36:01.264Z,16.00
2023-04-15T22:38:27.736Z,18.90
2023-04-15T22:40:54.226Z,20.47
2023-04-15T22:43:20.707Z,16.47
2023-04-15T22:45:51.277Z,23.60
2023-04-15T22:48:18.737Z,18.57
2023-04-15T22:50:45.703Z,18.20
2023-04-15T22:53:12.757Z,15.97
2023-04-15T22:55:39.487Z,17.33
2023-04-15T22:58:06.189Z,18.00
2023-04-15T23:00:32.750Z,16.93
2023-04-15T23:02:59.328Z,16.10
2023-04-15T23:05:26.175Z,20.93
2023-04-15T23:07:52.821Z,17.47
2023-04-15T23:10:19.256Z,22.20
2023-04-15T23:12:45.749Z,17.40
2023-04-15T23:15:12.538Z,21.57
2023-04-15T23:17:39.023Z,17.70
2023-04-15T23:20:06.519Z,20.13
2023-04-15T23:22:32.955Z,19.93
2023-04-15T23:24:59.661Z,17.77
2023-04-15T23:27:26.468Z,19.93
2023-04-15T23:29:52.924Z,19.13
2023-04-15T23:32:19.379Z,18.53
2023-04-15T23:34:46.264Z,18.10
2023-04-15T23:37:12.687Z,19.10
2023-04-15T23:39:39.308Z,27.10
2023-04-15T23:42:05.709Z,19.60
2023-04-15T23:44:32.320Z,17.50
2023-04-15T23:46:58.765Z,20.30
2023-04-15T23:49:25.661Z,18.57
2023-04-15T23:51:52.078Z,18.30
2023-04-15T23:54:18.620Z,20.50
2023-04-15T23:56:46.043Z,22.33
2023-04-15T23:59:12.629Z,16.97
